Lamar, Texas
Current Conditions -  °F | °C
As of 6:53 AM on Tuesday 21 Oct 2014 (Local Time) from KRKP Reporting Station
Haze Haze  
Wind Chill: 70°   Ceiling: Unl
Heat Index: 70°   Visibility: 6mi
Dew Point: 67°   Wind: 9mph
Humidity: 90%   Direction: 30°NNE
Pressure: 29.97"   Gusts: NA
Location:  28.2335°N, 96.9422°W
Report Text: KRKP 211153Z AUTO 03008KT 6SM BR CLR 21/19 A2997 RMK AO2 SLP150 70051 T02110194 10244 20211 53004
Loading
Personal Weather Stations






























Interactive Weather Map
Tropical Storm Tracking
New forecast layout! Learn more

10-Day Weather Forecast

Advertisements
Track Severe Weather on mobile